createdAt,value
2023-01-02T00:00:06.865Z,108.65
2023-01-02T00:02:59.763Z,69.85
2023-01-02T00:05:27.773Z,72.95
2023-01-02T00:07:55.420Z,89.95
2023-01-02T00:10:22.418Z,91.50
2023-01-02T00:12:49.936Z,85.00
2023-01-02T00:15:17.328Z,103.75
2023-01-02T00:17:44.787Z,160.65
2023-01-02T00:20:11.851Z,98.68
2023-01-02T00:22:39.402Z,107.15
2023-01-02T00:25:06.876Z,105.55
2023-01-02T00:27:35.023Z,128.32
2023-01-02T00:30:02.311Z,120.38
2023-01-02T00:32:29.676Z,156.05
2023-01-02T00:34:56.689Z,108.65
2023-01-02T00:37:26.785Z,97.40
2023-01-02T00:39:53.861Z,107.82
2023-01-02T00:42:21.328Z,91.13
2023-01-02T00:44:49.114Z,105.13
2023-01-02T00:47:21.275Z,102.13
2023-01-02T00:49:48.317Z,89.05
2023-01-02T00:52:16.087Z,90.57
2023-01-02T00:54:43.349Z,96.47
2023-01-02T00:57:10.704Z,82.65
2023-01-02T00:59:37.781Z,82.10
2023-01-02T01:02:07.648Z,88.78
2023-01-02T01:04:38.112Z,87.45
2023-01-02T01:07:05.485Z,83.75
2023-01-02T01:09:32.528Z,81.22
2023-01-02T01:12:02.275Z,91.57
2023-01-02T01:14:35.079Z,73.47
2023-01-02T01:17:02.421Z,75.13
2023-01-02T01:19:34.765Z,77.05
2023-01-02T01:22:02.056Z,72.40
2023-01-02T01:24:29.277Z,91.40
2023-01-02T01:26:58.990Z,95.68
2023-01-02T01:29:28.715Z,88.88
2023-01-02T01:31:56.153Z,87.32
2023-01-02T01:34:23.435Z,85.20
2023-01-02T01:36:50.823Z,70.57
2023-01-02T01:39:17.939Z,90.80
2023-01-02T01:41:46.633Z,92.10
2023-01-02T01:44:52.677Z,66.22
2023-01-02T01:47:38.379Z,88.10
2023-01-02T01:50:29.618Z,78.77
2023-01-02T01:53:08.279Z,78.55
2023-01-02T01:55:39.468Z,84.60
2023-01-02T01:58:14.337Z,88.78
2023-01-02T02:00:42.798Z,95.32
2023-01-02T02:03:18.078Z,89.15
2023-01-02T02:05:46.980Z,82.80
2023-01-02T02:08:31.792Z,89.57
2023-01-02T02:11:00.233Z,93.10
2023-01-02T02:13:30.893Z,73.00
2023-01-02T02:16:13.888Z,83.90
2023-01-02T02:19:03.076Z,77.15
2023-01-02T02:21:54.687Z,121.97
2023-01-02T02:24:55.992Z,94.38
2023-01-02T02:27:41.181Z,82.10
2023-01-02T02:30:21.949Z,69.75
2023-01-02T02:33:07.283Z,73.45
2023-01-02T02:35:49.912Z,64.82
2023-01-02T02:38:32.303Z,67.20
2023-01-02T02:41:29.168Z,70.80
2023-01-02T02:44:02.765Z,74.50
2023-01-02T02:46:49.356Z,64.93
2023-01-02T02:49:34.510Z,73.28
2023-01-02T02:52:19.519Z,93.75
2023-01-02T02:55:27.962Z,89.20
2023-01-02T02:57:58.730Z,89.18
2023-01-02T03:00:25.859Z,78.93
2023-01-02T03:02:53.290Z,82.50
2023-01-02T03:05:35.253Z,66.28
2023-01-02T03:08:24.011Z,67.07
2023-01-02T03:10:59.917Z,92.28
2023-01-02T03:13:42.268Z,73.60
2023-01-02T03:16:11.701Z,87.15
2023-01-02T03:19:04.060Z,114.70
2023-01-02T03:21:36.233Z,84.40
2023-01-02T03:24:11.867Z,89.25
2023-01-02T03:26:43.944Z,80.15
2023-01-02T03:29:17.445Z,98.32
2023-01-02T03:31:51.105Z,94.47
2023-01-02T03:34:23.655Z,96.40
2023-01-02T03:36:56.107Z,82.35
2023-01-02T03:39:28.931Z,80.25
2023-01-02T03:42:11.906Z,88.80
2023-01-02T03:44:58.611Z,91.78
2023-01-02T03:50:09.960Z,81.63
2023-01-02T03:52:37.409Z,69.45
2023-01-02T03:55:05.665Z,76.78
2023-01-02T03:58:00.582Z,70.13
2023-01-02T04:00:35.818Z,79.30
2023-01-02T04:03:28.342Z,69.27
2023-01-02T04:06:05.847Z,73.03
2023-01-02T04:08:39.142Z,83.88
2023-01-02T04:11:08.627Z,70.25
2023-01-02T04:13:42.115Z,71.15
2023-01-02T04:16:13.658Z,76.28
2023-01-02T04:18:47.045Z,70.57
2023-01-02T04:21:21.331Z,66.85
2023-01-02T04:23:57.174Z,69.40
2023-01-02T04:26:29.362Z,69.93
2023-01-02T04:28:56.670Z,61.78
2023-01-02T04:31:53.852Z,70.63
2023-01-02T04:34:23.575Z,67.82
2023-01-02T04:36:51.019Z,64.53
2023-01-02T04:39:22.786Z,66.85
2023-01-02T04:41:50.210Z,66.88
2023-01-02T04:44:17.271Z,66.70
2023-01-02T04:46:47.388Z,65.93
2023-01-02T04:49:14.453Z,66.13
2023-01-02T04:51:41.853Z,65.35
2023-01-02T04:54:11.548Z,68.60
2023-01-02T04:56:39.226Z,61.85
2023-01-02T04:59:06.366Z,57.58
2023-01-02T05:01:36.384Z,62.13
2023-01-02T05:04:03.523Z,60.50
2023-01-02T05:06:32.142Z,53.13
2023-01-02T05:08:59.299Z,58.55
2023-01-02T05:11:26.581Z,54.95
2023-01-02T05:13:53.608Z,54.55
2023-01-02T05:16:21.009Z,53.63
2023-01-02T05:18:50.549Z,57.15
2023-01-02T05:21:36.430Z,57.78
2023-01-02T05:24:04.101Z,51.90
2023-01-02T05:26:33.041Z,63.58
2023-01-02T05:29:03.734Z,56.88
2023-01-02T05:31:31.258Z,58.60
2023-01-02T05:33:59.911Z,62.90
2023-01-02T05:36:27.821Z,52.50
2023-01-02T05:38:55.666Z,59.63
2023-01-02T05:41:26.215Z,62.30
2023-01-02T05:43:54.760Z,55.55
2023-01-02T05:46:22.322Z,59.33
2023-01-02T05:48:49.604Z,53.22
2023-01-02T05:51:18.334Z,48.85
2023-01-02T05:53:45.567Z,50.38
2023-01-02T05:56:17.998Z,49.10
2023-01-02T05:58:47.556Z,51.83
2023-01-02T06:01:19.319Z,58.25
2023-01-02T06:03:47.399Z,56.42
2023-01-02T06:06:19.411Z,55.92
2023-01-02T06:08:46.810Z,72.68
2023-01-02T06:11:14.547Z,67.50
2023-01-02T06:13:42.632Z,61.88
2023-01-02T06:16:11.234Z,56.67
2023-01-02T06:18:40.124Z,61.65
2023-01-02T06:21:10.550Z,60.65
2023-01-02T06:23:38.670Z,63.05
2023-01-02T06:26:14.884Z,59.80
2023-01-02T06:28:42.556Z,67.78
2023-01-02T06:31:15.607Z,59.13
2023-01-02T06:33:45.664Z,59.30
2023-01-02T06:36:15.905Z,62.83
2023-01-02T06:38:43.788Z,63.97
2023-01-02T06:41:12.801Z,61.15
2023-01-02T06:43:45.658Z,54.22
2023-01-02T06:46:17.804Z,62.03
2023-01-02T06:48:45.735Z,55.67
2023-01-02T06:51:23.516Z,59.28
2023-01-02T06:53:51.180Z,66.13
2023-01-02T06:56:20.802Z,57.10
2023-01-02T06:58:48.167Z,55.63
2023-01-02T07:01:18.924Z,52.08
2023-01-02T07:03:46.334Z,50.92
2023-01-02T07:06:17.477Z,48.92
2023-01-02T07:08:48.617Z,57.58
2023-01-02T07:11:17.515Z,52.00
2023-01-02T07:13:46.752Z,56.92
2023-01-02T07:16:17.176Z,55.47
2023-01-02T07:18:45.058Z,53.30
2023-01-02T07:21:14.279Z,56.60
2023-01-02T07:23:42.820Z,55.42
2023-01-02T07:26:11.228Z,54.85
2023-01-02T07:28:38.872Z,55.35
2023-01-02T07:31:09.119Z,57.55
2023-01-02T07:33:36.294Z,62.25
2023-01-02T07:36:24.692Z,53.20
2023-01-02T07:38:52.808Z,48.72
2023-01-02T07:41:23.226Z,57.30
2023-01-02T07:43:55.201Z,57.22
2023-01-02T07:46:23.698Z,61.78
2023-01-02T07:48:53.364Z,59.80
2023-01-02T07:51:26.599Z,88.00
2023-01-02T07:53:56.362Z,64.80
2023-01-02T07:56:28.145Z,75.60
2023-01-02T07:58:55.384Z,88.45
2023-01-02T08:01:23.093Z,96.35
2023-01-02T08:03:50.699Z,101.35
2023-01-02T08:06:19.416Z,90.25
2023-01-02T08:08:46.990Z,81.57
2023-01-02T08:11:19.367Z,83.32
2023-01-02T08:13:47.275Z,97.95
2023-01-02T08:16:22.035Z,79.68
2023-01-02T08:18:52.273Z,70.85
2023-01-02T08:21:19.683Z,83.40
2023-01-02T08:23:46.933Z,80.28
2023-01-02T08:26:14.525Z,76.80
2023-01-02T08:28:42.447Z,98.03
2023-01-02T08:31:13.270Z,96.43
2023-01-02T08:33:40.803Z,83.47
2023-01-02T08:36:09.559Z,95.03
2023-01-02T08:38:36.896Z,134.38
2023-01-02T08:41:04.305Z,74.95
2023-01-02T08:43:34.737Z,79.05
2023-01-02T08:46:06.967Z,85.68
2023-01-02T08:48:35.682Z,87.45
2023-01-02T08:51:04.382Z,97.68
2023-01-02T08:53:31.506Z,77.22
2023-01-02T08:56:17.590Z,61.55
2023-01-02T08:58:48.795Z,64.55
2023-01-02T09:01:20.011Z,58.25
2023-01-02T09:03:47.346Z,56.83
2023-01-02T09:06:19.817Z,67.72
2023-01-02T09:08:48.916Z,60.20
2023-01-02T09:11:25.948Z,60.50
2023-01-02T09:13:53.272Z,54.83
2023-01-02T09:16:21.450Z,53.30
2023-01-02T09:18:49.155Z,67.63
2023-01-02T09:21:16.987Z,46.20
2023-01-02T09:23:46.294Z,50.42
2023-01-02T09:26:14.675Z,53.95
2023-01-02T09:28:42.283Z,66.25
2023-01-02T09:31:15.448Z,50.03
2023-01-02T09:33:43.925Z,46.17
2023-01-02T09:36:13.986Z,49.20
2023-01-02T09:38:41.184Z,79.70
2023-01-02T09:41:24.037Z,49.80
2023-01-02T09:44:14.761Z,61.00
2023-01-02T09:46:54.782Z,49.92
2023-01-02T09:49:29.010Z,51.95
2023-01-02T09:51:56.634Z,49.17
2023-01-02T09:54:30.896Z,57.42
2023-01-02T09:57:12.132Z,41.47
2023-01-02T09:59:56.338Z,51.10
2023-01-02T10:02:39.014Z,43.22
2023-01-02T10:05:18.835Z,39.38
2023-01-02T10:08:13.099Z,41.83
2023-01-02T10:10:43.773Z,49.60
2023-01-02T10:13:44.106Z,40.97
2023-01-02T10:16:19.425Z,48.80
2023-01-02T10:18:51.610Z,36.53
2023-01-02T10:21:23.534Z,48.65
2023-01-02T10:24:07.156Z,52.03
2023-01-02T10:26:41.802Z,43.10
2023-01-02T10:29:29.313Z,28.60
2023-01-02T10:32:06.428Z,36.10
2023-01-02T10:34:50.064Z,32.60
2023-01-02T10:37:17.413Z,38.80
2023-01-02T10:39:49.142Z,37.10
2023-01-02T10:42:17.116Z,35.03
2023-01-02T10:44:46.565Z,36.25
2023-01-02T10:47:38.901Z,38.10
2023-01-02T10:50:11.262Z,39.50
2023-01-02T10:52:46.262Z,38.83
2023-01-02T10:55:13.860Z,38.30
2023-01-02T10:57:41.213Z,37.40
2023-01-02T11:00:28.243Z,37.63
2023-01-02T11:03:05.947Z,36.33
2023-01-02T11:05:35.024Z,43.70
2023-01-02T11:08:11.388Z,34.65
2023-01-02T11:10:38.756Z,39.60
2023-01-02T11:13:20.861Z,40.25
2023-01-02T11:15:51.420Z,48.17
2023-01-02T11:18:31.599Z,40.88
2023-01-02T11:21:04.801Z,36.88
2023-01-02T11:23:39.913Z,35.67
2023-01-02T11:26:19.289Z,38.47
2023-01-02T11:28:47.484Z,33.88
2023-01-02T11:31:16.624Z,33.70
2023-01-02T11:33:45.764Z,34.30
2023-01-02T11:36:13.105Z,38.97
2023-01-02T11:38:53.992Z,33.78
2023-01-02T11:41:53.384Z,32.55
2023-01-02T11:44:31.021Z,36.42
2023-01-02T11:47:03.296Z,35.28
2023-01-02T11:49:44.117Z,35.28
2023-01-02T11:52:18.976Z,29.90
2023-01-02T11:54:52.854Z,33.80
2023-01-02T11:57:35.871Z,32.30
2023-01-02T12:00:05.214Z,34.75
2023-01-02T12:02:44.544Z,34.33
2023-01-02T12:05:43.841Z,38.60
2023-01-02T12:08:27.884Z,37.03
2023-01-02T12:11:09.827Z,39.45
2023-01-02T12:13:46.506Z,41.65
2023-01-02T12:16:19.673Z,33.90
2023-01-02T12:19:03.395Z,35.13
2023-01-02T12:21:41.721Z,32.58
2023-01-02T12:24:28.173Z,40.30
2023-01-02T12:27:20.178Z,35.05
2023-01-02T12:30:01.889Z,32.00
2023-01-02T12:33:06.661Z,35.53
2023-01-02T12:36:28.220Z,38.55
2023-01-02T12:39:32.954Z,31.45
2023-01-02T12:42:25.977Z,34.17
2023-01-02T12:44:58.685Z,30.98
2023-01-02T12:47:41.353Z,34.00
2023-01-02T12:50:37.465Z,36.88
2023-01-02T12:54:19.650Z,35.75
2023-01-02T12:56:58.684Z,32.13
2023-01-02T12:59:29.112Z,33.90
2023-01-02T13:02:21.036Z,34.35
2023-01-02T13:05:04.634Z,36.25
2023-01-02T13:07:40.189Z,28.92
2023-01-02T13:12:40.964Z,32.95
2023-01-02T13:15:28.102Z,32.97
2023-01-02T13:18:14.920Z,29.23
2023-01-02T13:21:00.648Z,31.55
2023-01-02T13:23:31.370Z,30.17
2023-01-02T13:26:06.560Z,35.63
2023-01-02T13:28:40.510Z,33.15
2023-01-02T13:31:44.647Z,40.30
2023-01-02T13:34:12.945Z,46.58
2023-01-02T13:36:46.205Z,39.47
2023-01-02T13:39:21.409Z,35.22
2023-01-02T13:42:15.630Z,37.75
2023-01-02T13:44:49.387Z,37.90
2023-01-02T13:47:24.480Z,37.78
2023-01-02T13:50:08.694Z,34.45
2023-01-02T13:52:36.404Z,37.38
2023-01-02T13:55:28.608Z,37.83
2023-01-02T13:58:20.669Z,37.30
2023-01-02T14:00:56.890Z,42.38
2023-01-02T14:03:24.587Z,41.83
2023-01-02T14:05:57.849Z,39.17
2023-01-02T14:08:25.373Z,40.28
2023-01-02T14:11:00.813Z,44.65
2023-01-02T14:13:51.068Z,48.08
2023-01-02T14:16:49.229Z,44.83
2023-01-02T14:19:20.445Z,42.25
2023-01-02T14:22:03.439Z,37.33
2023-01-02T14:24:39.625Z,48.85
2023-01-02T14:27:28.521Z,39.17
2023-01-02T14:30:03.272Z,41.58
2023-01-02T14:32:42.113Z,39.45
2023-01-02T14:35:17.970Z,47.20
2023-01-02T14:38:22.745Z,35.10
2023-01-02T14:40:51.647Z,35.58
2023-01-02T14:43:37.441Z,40.00
2023-01-02T14:46:04.956Z,36.83
2023-01-02T14:48:38.090Z,36.05
2023-01-02T14:51:32.905Z,34.80
2023-01-02T14:54:26.661Z,42.25
2023-01-02T14:56:58.408Z,39.33
2023-01-02T14:59:40.587Z,37.72
2023-01-02T15:02:17.995Z,34.17
2023-01-02T15:04:51.048Z,38.67
2023-01-02T15:07:26.744Z,45.90
2023-01-02T15:09:59.522Z,42.28
2023-01-02T15:12:47.897Z,44.03
2023-01-02T15:15:23.373Z,45.13
2023-01-02T15:20:25.710Z,40.42
2023-01-02T15:22:58.018Z,42.15
2023-01-02T15:25:34.308Z,40.13
2023-01-02T15:28:06.403Z,44.85
2023-01-02T15:30:40.332Z,43.20
2023-01-02T15:33:28.346Z,44.33
2023-01-02T15:36:44.229Z,42.38
2023-01-02T15:39:30.264Z,43.13
2023-01-02T15:42:02.403Z,50.90
2023-01-02T15:44:54.367Z,52.60
2023-01-02T15:47:28.412Z,59.90
2023-01-02T15:49:57.680Z,48.03
2023-01-02T15:52:30.578Z,53.28
2023-01-02T15:54:59.639Z,53.05
2023-01-02T15:57:32.300Z,44.70
2023-01-02T16:00:01.059Z,47.60
2023-01-02T16:02:44.938Z,45.08
2023-01-02T16:05:18.328Z,51.17
2023-01-02T16:07:54.021Z,45.13
2023-01-02T16:10:24.133Z,51.15
2023-01-02T16:12:58.025Z,45.13
2023-01-02T16:15:30.507Z,44.38
2023-01-02T16:18:00.577Z,44.55
2023-01-02T16:20:29.297Z,45.38
2023-01-02T16:23:00.567Z,38.53
2023-01-02T16:25:30.749Z,42.03
2023-01-02T16:28:35.465Z,42.15
2023-01-02T16:31:10.872Z,46.38
2023-01-02T16:33:38.569Z,41.97
2023-01-02T16:36:29.496Z,42.08
2023-01-02T16:39:01.586Z,47.17
2023-01-02T16:41:36.960Z,42.08
2023-01-02T16:44:15.508Z,43.35
2023-01-02T16:46:50.452Z,39.45
2023-01-02T16:49:23.414Z,43.15
2023-01-02T16:51:54.713Z,49.70
2023-01-02T16:54:22.034Z,47.55
2023-01-02T16:56:50.355Z,45.53
2023-01-02T16:59:17.499Z,44.28
2023-01-02T17:01:45.067Z,41.78
2023-01-02T17:04:13.079Z,44.38
2023-01-02T17:06:43.149Z,40.42
2023-01-02T17:09:10.199Z,40.92
2023-01-02T17:11:37.894Z,40.22
2023-01-02T17:14:07.323Z,44.78
2023-01-02T17:16:37.120Z,44.13
2023-01-02T17:19:04.326Z,42.83
2023-01-02T17:21:33.059Z,38.13
2023-01-02T17:24:00.296Z,43.35
2023-01-02T17:26:27.660Z,36.80
2023-01-02T17:28:56.899Z,36.70
2023-01-02T17:31:26.244Z,34.92
2023-01-02T17:33:53.710Z,41.08
2023-01-02T17:36:21.203Z,34.55
2023-01-02T17:38:48.459Z,32.85
2023-01-02T17:41:18.402Z,36.85
2023-01-02T17:44:01.362Z,33.97
2023-01-02T17:49:21.226Z,35.53
2023-01-02T17:51:48.701Z,35.83
2023-01-02T17:54:15.814Z,40.08
2023-01-02T17:56:43.667Z,37.22
2023-01-02T17:59:10.800Z,36.80
2023-01-02T18:01:38.489Z,36.78
2023-01-02T18:04:06.274Z,34.00
2023-01-02T18:06:33.756Z,40.25
2023-01-02T18:09:00.796Z,37.50
2023-01-02T18:11:28.332Z,43.17
2023-01-02T18:13:56.426Z,42.63
2023-01-02T18:16:41.014Z,40.33
2023-01-02T18:19:20.894Z,38.95
2023-01-02T18:21:48.741Z,38.97
2023-01-02T18:24:31.962Z,41.92
2023-01-02T18:27:15.114Z,33.72
2023-01-02T18:29:42.475Z,30.77
2023-01-02T18:32:23.197Z,34.83
2023-01-02T18:34:59.312Z,29.30
2023-01-02T18:37:29.458Z,32.33
2023-01-02T18:39:57.697Z,30.00
2023-01-02T18:42:29.928Z,34.40
2023-01-02T18:45:01.259Z,27.23
2023-01-02T18:47:32.360Z,27.30
2023-01-02T18:50:33.128Z,30.83
2023-01-02T18:53:14.614Z,27.92
2023-01-02T18:55:41.875Z,24.73
2023-01-02T18:58:36.259Z,25.15
2023-01-02T19:01:24.309Z,26.30
2023-01-02T19:03:58.725Z,28.63
2023-01-02T19:06:29.816Z,27.30
2023-01-02T19:09:06.387Z,25.10
2023-01-02T19:11:52.831Z,28.63
2023-01-02T19:14:24.392Z,27.25
2023-01-02T19:17:10.206Z,36.85
2023-01-02T19:22:21.854Z,38.40
2023-01-02T19:24:50.859Z,42.03
2023-01-02T19:27:30.198Z,33.53
2023-01-02T19:29:58.546Z,42.67
2023-01-02T19:32:31.165Z,37.53
2023-01-02T19:35:09.151Z,39.08
2023-01-02T19:37:44.988Z,42.38
2023-01-02T19:42:54.884Z,42.72
2023-01-02T19:45:25.165Z,41.60
2023-01-02T19:47:53.261Z,39.88
2023-01-02T19:50:26.609Z,35.92
2023-01-02T19:52:54.544Z,42.75
2023-01-02T19:55:25.061Z,48.65
2023-01-02T19:57:52.510Z,42.83
2023-01-02T20:00:20.875Z,47.42
2023-01-02T20:02:52.385Z,39.53
2023-01-02T20:05:23.026Z,41.08
2023-01-02T20:07:53.633Z,43.83
2023-01-02T20:10:22.580Z,37.60
2023-01-02T20:12:50.493Z,38.20
2023-01-02T20:15:28.094Z,40.92
2023-01-02T20:17:56.163Z,41.65
2023-01-02T20:20:26.560Z,44.97
2023-01-02T20:22:55.338Z,39.40
2023-01-02T20:25:26.606Z,37.55
2023-01-02T20:27:57.068Z,36.38
2023-01-02T20:30:25.645Z,38.53
2023-01-02T20:32:54.614Z,36.42
2023-01-02T20:35:23.270Z,34.17
2023-01-02T20:37:52.904Z,33.38
2023-01-02T20:40:20.943Z,35.38
2023-01-02T20:42:50.302Z,35.15
2023-01-02T20:45:18.771Z,33.55
2023-01-02T20:47:46.783Z,29.15
2023-01-02T20:50:15.308Z,33.08
2023-01-02T20:52:45.229Z,31.10
2023-01-02T20:55:13.421Z,31.13
2023-01-02T20:57:44.964Z,29.88
2023-01-02T21:00:18.247Z,28.33
2023-01-02T21:02:47.762Z,23.67
2023-01-02T21:05:20.395Z,22.92
2023-01-02T21:07:48.101Z,26.02
2023-01-02T21:10:15.924Z,26.63
2023-01-02T21:13:05.165Z,27.50
2023-01-02T21:15:43.234Z,25.83
2023-01-02T21:18:20.889Z,28.58
2023-01-02T21:20:54.170Z,22.10
2023-01-02T21:23:24.435Z,30.98
2023-01-02T21:25:52.814Z,29.80
2023-01-02T21:28:21.364Z,31.80
2023-01-02T21:30:54.321Z,27.55
2023-01-02T21:33:23.302Z,30.83
2023-01-02T21:35:52.303Z,27.90
2023-01-02T21:38:21.133Z,27.55
2023-01-02T21:40:49.068Z,27.95
2023-01-02T21:43:16.159Z,28.80
2023-01-02T21:45:43.692Z,29.00
2023-01-02T21:48:10.882Z,28.70
2023-01-02T21:50:38.273Z,31.17
2023-01-02T21:53:05.359Z,29.35
2023-01-02T21:55:32.701Z,31.73
2023-01-02T21:58:15.377Z,30.08
2023-01-02T22:00:45.589Z,30.80
2023-01-02T22:03:12.917Z,29.00
2023-01-02T22:05:40.530Z,28.45
2023-01-02T22:08:07.786Z,29.58
2023-01-02T22:10:35.510Z,27.77
2023-01-02T22:13:02.864Z,29.13
2023-01-02T22:15:30.413Z,29.95
2023-01-02T22:17:57.421Z,35.50
2023-01-02T22:20:24.851Z,33.63
2023-01-02T22:22:54.292Z,33.13
2023-01-02T22:25:24.080Z,36.75
2023-01-02T22:27:53.647Z,33.90
2023-01-02T22:30:27.401Z,33.75
2023-01-02T22:33:00.701Z,35.45
2023-01-02T22:35:28.153Z,34.95
2023-01-02T22:37:55.408Z,36.05
2023-01-02T22:40:25.564Z,37.15
2023-01-02T22:43:00.968Z,40.38
2023-01-02T22:45:33.345Z,39.03
2023-01-02T22:48:04.098Z,37.92
2023-01-02T22:50:40.206Z,36.97
2023-01-02T22:55:41.250Z,32.70
2023-01-02T22:58:11.261Z,37.20
2023-01-02T23:00:38.839Z,38.03
2023-01-02T23:03:13.258Z,42.22
2023-01-02T23:05:41.348Z,49.13
2023-01-02T23:08:08.993Z,43.47
2023-01-02T23:10:38.827Z,46.08
2023-01-02T23:13:05.878Z,43.85
2023-01-02T23:15:35.370Z,50.90
2023-01-02T23:18:21.379Z,44.03
2023-01-02T23:20:48.809Z,44.47
2023-01-02T23:23:15.861Z,43.67
2023-01-02T23:25:46.694Z,43.88
2023-01-02T23:28:39.207Z,44.45
2023-01-02T23:31:03.112Z,43.03
2023-01-02T23:33:30.244Z,42.85
2023-01-02T23:35:57.765Z,47.05
2023-01-02T23:38:24.816Z,44.10
2023-01-02T23:40:52.218Z,46.65
2023-01-02T23:43:19.249Z,42.97
2023-01-02T23:45:46.826Z,42.25
2023-01-02T23:48:13.931Z,42.30
2023-01-02T23:50:46.432Z,37.90
2023-01-02T23:53:16.850Z,37.65
2023-01-02T23:55:44.505Z,37.42
2023-01-02T23:58:11.643Z,43.40
